Time;durP1;ratioP1;P1;durP2;ratioP2;P2;SDS_P1;SDS_P2;PMS_P1;PMS_P2;Temp;Humidity;BMP_temperature;BMP_pressure;BME280_temperature;BME280_humidity;BME280_pressure;Samples;Min_cycle;Max_cycle;Signal;HPM_P1;HPM_P2
2023/08/24 00:00:43;;;;;;;4.40;2.17;;;;;;;17.72;81.92;101064.41;5086451;28;20273;-80
2023/08/24 00:03:10;;;;;;;4.10;2.47;;;;;;;17.67;82.13;101062.09;5094254;28;20229;-81
2023/08/24 00:05:36;;;;;;;3.50;2.20;;;;;;;17.66;82.49;101055.00;5077968;28;20226;-80
2023/08/24 00:08:04;;;;;;;3.33;2.10;;;;;;;17.66;82.18;101068.47;5094721;28;20297;-80
2023/08/24 00:10:32;;;;;;;2.30;2.07;;;;;;;17.60;82.25;101071.66;5094166;28;20204;-82
2023/08/24 00:12:59;;;;;;;4.43;2.40;;;;;;;17.55;82.75;101073.91;5094469;28;20655;-81
2023/08/24 00:15:25;;;;;;;4.10;2.43;;;;;;;17.51;82.74;101072.44;5091478;28;20230;-80
2023/08/24 00:17:52;;;;;;;2.33;2.17;;;;;;;17.48;83.32;101067.31;5087974;28;20202;-80
2023/08/24 00:20:19;;;;;;;2.77;2.23;;;;;;;17.46;83.63;101066.59;5088553;28;20658;-80
2023/08/24 00:22:47;;;;;;;5.33;2.77;;;;;;;17.44;83.66;101068.56;5093460;28;20310;-81
2023/08/24 00:25:14;;;;;;;3.20;2.43;;;;;;;17.42;84.03;101071.38;5093357;28;20219;-81
2023/08/24 00:27:42;;;;;;;2.53;2.33;;;;;;;17.42;84.30;101078.59;5090103;28;20201;-82
2023/08/24 00:30:09;;;;;;;5.17;2.73;;;;;;;17.40;84.24;101088.66;5089664;28;20219;-80
2023/08/24 00:32:36;;;;;;;2.80;2.47;;;;;;;17.31;84.48;101083.06;5085775;28;20217;-80
2023/08/24 00:35:03;;;;;;;3.20;2.80;;;;;;;17.28;85.19;101082.47;5092638;28;20210;-81
2023/08/24 00:37:30;;;;;;;6.27;3.20;;;;;;;17.25;85.81;101077.34;5086813;28;20206;-80
2023/08/24 00:39:57;;;;;;;5.43;3.33;;;;;;;17.25;86.66;101078.19;5084175;28;20262;-80
2023/08/24 00:42:23;;;;;;;3.67;3.37;;;;;;;17.24;87.32;101083.72;5092727;28;20236;-80
2023/08/24 00:44:51;;;;;;;3.90;3.60;;;;;;;17.22;87.81;101073.06;5092017;28;20217;-79
2023/08/24 00:47:18;;;;;;;3.87;3.57;;;;;;;17.22;88.16;101073.06;5088320;28;20706;-79
2023/08/24 00:49:45;;;;;;;4.77;4.37;;;;;;;17.20;88.49;101072.34;5092257;28;20220;-79
2023/08/24 00:52:12;;;;;;;4.87;3.77;;;;;;;17.22;88.90;101075.75;5091892;28;20204;-79
2023/08/24 00:54:40;;;;;;;4.27;3.97;;;;;;;17.22;89.08;101081.16;5093205;28;20209;-81
2023/08/24 00:57:07;;;;;;;4.33;3.57;;;;;;;17.21;89.34;101071.38;5095091;28;20708;-81
2023/08/24 00:59:34;;;;;;;4.13;3.83;;;;;;;17.22;89.43;101070.38;5094256;28;20209;-80
2023/08/24 01:02:03;;;;;;;5.40;3.60;;;;;;;17.20;88.38;101066.09;5090180;28;20654;-80
2023/08/24 01:04:29;;;;;;;3.67;3.37;;;;;;;17.10;87.84;101066.03;5088535;28;20209;-81
2023/08/24 01:06:56;;;;;;;3.93;3.63;;;;;;;17.01;87.57;101061.44;5094266;28;20228;-80
2023/08/24 01:09:23;;;;;;;4.20;3.90;;;;;;;16.89;88.49;101057.06;5093100;28;20211;-80
2023/08/24 01:12:00;;;;;;;4.30;3.23;;;;;;;16.84;89.33;101056.63;5094937;28;20217;-81
2023/08/24 01:14:37;;;;;;;4.93;4.47;;;;;;;16.81;89.95;101060.41;5094668;28;20747;-81
2023/08/24 01:17:08;;;;;;;4.33;3.90;;;;;;;16.80;90.22;101061.41;5095488;28;20305;-81
2023/08/24 01:19:39;;;;;;;5.13;3.90;;;;;;;16.80;90.63;101069.47;5094342;28;20197;-80
2023/08/24 01:22:15;;;;;;;4.33;3.93;;;;;;;16.79;90.88;101054.31;5095851;28;20203;-81
2023/08/24 01:24:47;;;;;;;5.17;4.70;;;;;;;16.78;90.73;101067.88;5098590;28;20200;-80
2023/08/24 01:27:16;;;;;;;4.43;4.03;;;;;;;16.80;91.07;101065.91;5093975;28;20221;-81
2023/08/24 01:29:42;;;;;;;4.87;4.37;;;;;;;16.79;90.73;101072.28;5093831;28;20544;-81
2023/08/24 01:32:11;;;;;;;5.07;3.80;;;;;;;16.75;90.97;101062.75;5098397;28;20220;-81
2023/08/24 01:34:38;;;;;;;4.73;4.33;;;;;;;16.74;91.38;101067.28;5097699;28;20612;-81
2023/08/24 01:37:05;;;;;;;4.50;4.10;;;;;;;16.75;91.63;101068.13;5097860;28;20229;-81
2023/08/24 01:39:40;;;;;;;4.80;4.40;;;;;;;16.72;91.91;101063.84;5092423;28;20205;-80
2023/08/24 01:42:11;;;;;;;5.03;3.90;;;;;;;16.66;92.17;101059.81;5106770;28;20253;-80
2023/08/24 01:44:43;;;;;;;4.53;4.13;;;;;;;16.64;93.04;101048.38;5096277;28;20212;-80
2023/08/24 01:47:11;;;;;;;5.47;4.03;;;;;;;16.64;93.19;101053.75;5092933;28;20220;-80
2023/08/24 01:49:39;;;;;;;4.70;4.30;;;;;;;16.65;93.54;101058.13;5098334;28;20208;-80
2023/08/24 01:52:06;;;;;;;4.73;4.30;;;;;;;16.66;93.74;101051.75;5097725;28;20203;-80
2023/08/24 01:54:33;;;;;;;4.40;4.00;;;;;;;16.66;93.65;101051.75;5097619;28;20203;-81
2023/08/24 01:57:00;;;;;;;4.43;4.03;;;;;;;16.66;93.11;101056.28;5097562;28;20230;-80
2023/08/24 01:59:26;;;;;;;3.47;3.27;;;;;;;16.62;91.61;101050.28;5096294;28;20217;-80
2023/08/24 02:01:54;;;;;;;5.00;4.00;;;;;;;16.53;90.49;101045.66;5097835;28;20208;-80
2023/08/24 02:04:20;;;;;;;4.00;3.47;;;;;;;16.47;89.83;101050.69;5097927;28;20223;-81
2023/08/24 02:06:47;;;;;;;5.17;3.90;;;;;;;16.42;89.89;101055.59;5097807;28;20238;-81
2023/08/24 02:09:13;;;;;;;4.13;3.53;;;;;;;16.37;90.19;101052.41;5097370;28;20210;-81
2023/08/24 02:11:40;;;;;;;3.40;3.10;;;;;;;16.32;90.58;101042.00;5096045;28;20206;-82
2023/08/24 02:14:07;;;;;;;7.03;4.53;;;;;;;16.31;91.01;101043.00;5092989;28;20214;-81
2023/08/24 02:16:33;;;;;;;5.77;3.80;;;;;;;16.31;91.52;101040.31;5097479;28;20735;-80
2023/08/24 02:19:01;;;;;;;4.63;3.90;;;;;;;16.30;91.83;101031.38;5091361;28;20791;-80
2023/08/24 02:21:27;;;;;;;3.80;3.50;;;;;;;16.29;91.62;101037.78;5087515;28;20729;-81
2023/08/24 02:23:54;;;;;;;6.47;4.33;;;;;;;16.28;91.21;101040.56;5095149;28;20400;-80
2023/08/24 02:26:21;;;;;;;4.40;4.00;;;;;;;16.23;91.24;101029.34;5092419;28;20236;-80
2023/08/24 02:28:47;;;;;;;4.17;3.77;;;;;;;16.21;91.49;101033.97;5095960;28;20209;-81
2023/08/24 02:31:15;;;;;;;4.23;3.83;;;;;;;16.19;91.69;101036.78;5095850;28;20235;-81
2023/08/24 02:33:42;;;;;;;4.30;3.50;;;;;;;16.18;92.23;101035.06;5091142;28;20263;-80
2023/08/24 02:36:10;;;;;;;4.40;4.00;;;;;;;16.17;92.11;101035.19;5096861;28;20876;-80
2023/08/24 02:38:36;;;;;;;4.83;4.47;;;;;;;16.15;92.37;101031.78;5094546;28;20218;-80
2023/08/24 02:41:04;;;;;;;6.50;4.43;;;;;;;16.14;92.71;101030.06;5092087;28;20432;-80
2023/08/24 02:43:30;;;;;;;5.30;4.80;;;;;;;16.12;93.25;101024.00;5096696;28;20809;-81
2023/08/24 02:46:01;;;;;;;5.57;5.07;;;;;;;16.09;93.68;101021.53;5096081;28;20220;-81
2023/08/24 02:48:27;;;;;;;5.97;5.30;;;;;;;16.05;93.88;101025.44;5096519;28;20205;-81
2023/08/24 02:50:54;;;;;;;5.93;5.43;;;;;;;16.03;94.27;101016.66;5090649;28;20207;-81
2023/08/24 02:53:21;;;;;;;5.63;4.77;;;;;;;15.98;94.74;101017.88;5096371;28;20647;-80
2023/08/24 02:55:48;;;;;;;5.27;4.80;;;;;;;15.93;94.90;101017.41;5091704;28;20226;-80
2023/08/24 02:58:14;;;;;;;5.63;5.13;;;;;;;15.90;95.31;101017.66;5095624;28;20210;-80
2023/08/24 03:00:41;;;;;;;6.30;5.70;;;;;;;15.90;95.65;101006.03;5096111;28;20593;-80
2023/08/24 03:03:07;;;;;;;10.97;5.77;;;;;;;15.88;95.84;101002.63;5090985;28;20907;-79
2023/08/24 03:05:34;;;;;;;5.97;5.47;;;;;;;15.88;96.43;101003.47;5093528;28;20223;-80
2023/08/24 03:08:00;;;;;;;5.33;4.83;;;;;;;15.89;96.74;100998.97;5092788;28;20202;-80
2023/08/24 03:10:28;;;;;;;6.13;5.53;;;;;;;15.88;97.00;101000.78;5091938;28;20614;-80
2023/08/24 03:12:55;;;;;;;5.03;4.63;;;;;;;15.88;96.66;100999.94;5085472;28;20210;-80
2023/08/24 03:15:22;;;;;;;5.50;5.10;;;;;;;15.89;97.08;100999.81;5094429;28;20234;-80
2023/08/24 03:17:48;;;;;;;4.70;4.40;;;;;;;15.89;96.47;100998.97;5095442;28;20686;-80
2023/08/24 03:20:15;;;;;;;3.70;3.47;;;;;;;15.85;95.98;100994.81;5094813;28;20676;-80
2023/08/24 03:22:41;;;;;;;4.13;3.83;;;;;;;15.82;95.27;101000.41;5095630;28;20555;-81
2023/08/24 03:25:08;;;;;;;4.67;4.37;;;;;;;15.75;95.25;101018.88;5094462;28;20619;-81
2023/08/24 03:27:36;;;;;;;5.17;4.77;;;;;;;15.70;95.54;101013.00;5094888;28;20753;-82
2023/08/24 03:30:04;;;;;;;5.33;4.93;;;;;;;15.68;96.11;101017.63;5094269;28;20261;-81
2023/08/24 03:32:30;;;;;;;5.47;4.97;;;;;;;15.67;96.44;101018.59;5094691;28;20243;-80
2023/08/24 03:34:59;;;;;;;5.37;4.87;;;;;;;15.68;96.84;101028.38;5094251;28;20204;-81
2023/08/24 03:37:25;;;;;;;6.17;5.50;;;;;;;15.67;97.12;101026.66;5094463;28;20201;-81
2023/08/24 03:39:52;;;;;;;7.33;5.53;;;;;;;15.68;97.42;101033.75;5094282;28;20216;-80
2023/08/24 03:42:18;;;;;;;6.83;6.13;;;;;;;15.66;97.60;101030.31;5091290;28;20200;-82
2023/08/24 03:44:46;;;;;;;6.63;6.03;;;;;;;15.66;97.50;101022.25;5094040;28;20228;-82
2023/08/24 03:47:13;;;;;;;6.93;6.37;;;;;;;15.63;97.67;101017.97;5095306;28;20220;-81
2023/08/24 03:49:39;;;;;;;6.90;6.37;;;;;;;15.63;98.06;101015.28;5094967;28;20223;-82
2023/08/24 03:52:06;;;;;;;7.83;6.23;;;;;;;15.64;98.51;101013.47;5090550;28;20207;-81
2023/08/24 03:54:32;;;;;;;7.33;6.63;;;;;;;15.65;98.55;101007.13;5091254;28;20598;-80
2023/08/24 03:56:58;;;;;;;7.47;6.57;;;;;;;15.64;98.36;100997.34;5095127;28;20597;-80
2023/08/24 03:59:25;;;;;;;6.30;5.80;;;;;;;15.58;97.69;101004.09;5094028;28;20654;-80
2023/08/24 04:01:53;;;;;;;5.73;5.23;;;;;;;15.51;96.33;101010.00;5093886;28;20211;-81
2023/08/24 04:04:19;;;;;;;6.30;5.70;;;;;;;15.42;96.92;101008.88;5093766;28;20229;-82
2023/08/24 04:06:46;;;;;;;6.53;6.03;;;;;;;15.36;96.41;101011.22;5093351;28;20235;-82
2023/08/24 04:09:13;;;;;;;5.70;5.30;;;;;;;15.28;96.28;101014.47;5094342;28;20207;-81
2023/08/24 04:11:40;;;;;;;7.13;5.80;;;;;;;15.24;96.20;101013.84;5091458;28;20204;-81
2023/08/24 04:14:06;;;;;;;6.23;5.77;;;;;;;15.20;96.30;101020.44;5094605;28;20210;-80
2023/08/24 04:16:32;;;;;;;6.40;5.80;;;;;;;15.20;96.71;101019.59;5094253;28;20224;-82
2023/08/24 04:19:00;;;;;;;6.43;5.60;;;;;;;15.20;97.05;101031.19;5088824;28;20197;-80
2023/08/24 04:21:27;;;;;;;7.37;5.63;;;;;;;15.18;97.27;101024.22;5092498;28;20200;-81
2023/08/24 04:23:54;;;;;;;6.40;5.90;;;;;;;15.18;97.82;101032.25;5091633;28;20224;-80
2023/08/24 04:26:20;;;;;;;7.17;6.57;;;;;;;15.21;98.65;101045.44;5087526;28;20220;-80
2023/08/24 04:28:47;;;;;;;7.03;6.13;;;;;;;15.23;98.51;101040.78;5093159;28;20223;-82
2023/08/24 04:31:13;;;;;;;8.20;5.77;;;;;;;15.24;98.79;101048.72;5093168;28;20207;-81
2023/08/24 04:33:39;;;;;;;6.53;6.10;;;;;;;15.24;98.59;101040.69;5093499;28;20227;-81
2023/08/24 04:36:08;;;;;;;7.63;6.60;;;;;;;15.24;98.85;101038.00;5094276;28;20223;-82
2023/08/24 04:38:34;;;;;;;7.90;7.30;;;;;;;15.26;99.16;101036.06;5093820;28;20204;-81
2023/08/24 04:41:01;;;;;;;7.57;6.97;;;;;;;15.27;99.37;101024.34;5094120;28;20708;-80
2023/08/24 04:43:28;;;;;;;7.33;6.63;;;;;;;15.24;99.47;101018.34;5093318;28;20837;-81
2023/08/24 04:45:55;;;;;;;8.47;7.70;;;;;;;15.24;100.00;101019.22;5092721;28;20231;-81
2023/08/24 04:48:23;;;;;;;7.83;7.07;;;;;;;15.25;100.00;101031.66;5092769;28;20208;-80
2023/08/24 04:50:50;;;;;;;7.87;7.20;;;;;;;15.24;99.80;101035.31;5093018;28;20215;-80
2023/08/24 04:53:19;;;;;;;6.57;6.07;;;;;;;15.23;99.71;101040.78;5093065;28;20211;-80
2023/08/24 04:55:46;;;;;;;9.20;7.60;;;;;;;15.22;100.00;101057.91;5093555;28;20227;-81
2023/08/24 04:58:14;;;;;;;7.70;7.10;;;;;;;15.20;100.00;101063.38;5093374;28;20565;-81
2023/08/24 05:00:40;;;;;;;9.70;8.77;;;;;;;15.21;100.00;101051.69;5093040;28;20657;-81
2023/08/24 05:03:08;;;;;;;11.53;10.53;;;;;;;15.28;100.00;101060.94;5092849;28;20280;-81
2023/08/24 05:05:35;;;;;;;12.57;11.37;;;;;;;15.40;100.00;101055.63;5092718;28;20228;-81
2023/08/24 05:08:03;;;;;;;12.47;11.43;;;;;;;15.48;100.00;101046.00;5092205;28;20200;-81
2023/08/24 05:10:33;;;;;;;12.23;11.13;;;;;;;15.58;100.00;101046.19;5086688;28;20574;-84
2023/08/24 05:13:00;;;;;;;12.70;11.60;;;;;;;15.67;100.00;101048.13;5091673;28;20210;-82
2023/08/24 05:15:27;;;;;;;12.67;11.60;;;;;;;15.75;100.00;101047.56;5085793;28;20232;-82
2023/08/24 05:17:54;;;;;;;13.87;12.43;;;;;;;15.82;100.00;101029.97;5088172;28;20214;-82
2023/08/24 05:20:21;;;;;;;13.23;12.03;;;;;;;15.89;100.00;101041.94;5091420;28;20218;-81
2023/08/24 05:22:47;;;;;;;13.10;11.63;;;;;;;15.97;100.00;101032.28;5089070;28;20219;-84
2023/08/24 05:25:16;;;;;;;9.80;9.00;;;;;;;16.08;100.00;101028.75;5091850;28;20233;-83
2023/08/24 05:27:44;;;;;;;9.47;8.67;;;;;;;16.12;100.00;101026.69;5092510;28;20227;-83
2023/08/24 05:30:12;;;;;;;9.17;8.43;;;;;;;16.14;100.00;101022.84;5092717;28;20791;-84
2023/08/24 05:32:38;;;;;;;9.17;8.37;;;;;;;16.16;100.00;101028.09;5092757;28;20205;-81
2023/08/24 05:35:06;;;;;;;9.40;8.57;;;;;;;16.19;100.00;101034.09;5093343;28;20252;-82
2023/08/24 05:37:32;;;;;;;8.67;7.77;;;;;;;16.24;100.00;101033.75;5093353;28;20210;-82
2023/08/24 05:39:59;;;;;;;9.60;8.80;;;;;;;16.30;100.00;101033.25;5093404;28;20216;-81
2023/08/24 05:42:26;;;;;;;9.27;8.50;;;;;;;16.35;100.00;101041.78;5096158;28;20213;-81
2023/08/24 05:44:54;;;;;;;10.07;9.20;;;;;;;16.42;100.00;101045.69;5095840;28;20226;-84
2023/08/24 05:47:20;;;;;;;9.43;8.67;;;;;;;16.48;100.00;101047.03;5094702;28;20229;-82
2023/08/24 05:49:47;;;;;;;10.03;8.90;;;;;;;16.54;100.00;101055.41;5095892;28;20207;-83
2023/08/24 05:52:13;;;;;;;9.93;9.17;;;;;;;16.62;100.00;101050.28;5095201;28;20214;-81
2023/08/24 05:54:40;;;;;;;10.20;9.43;;;;;;;16.69;100.00;101064.09;5095527;28;20215;-81
2023/08/24 05:57:06;;;;;;;10.80;9.70;;;;;;;16.75;100.00;101054.69;5095262;28;20815;-82
2023/08/24 05:59:34;;;;;;;10.60;9.70;;;;;;;16.80;100.00;101050.63;5095526;28;20221;-81
2023/08/24 06:02:02;;;;;;;10.23;9.43;;;;;;;16.85;100.00;101047.53;5095211;28;20607;-82
2023/08/24 06:04:28;;;;;;;10.37;9.57;;;;;;;16.88;100.00;101048.13;5095166;28;20236;-81
2023/08/24 06:06:54;;;;;;;10.60;9.70;;;;;;;16.91;100.00;101047.03;5094785;28;20240;-80
2023/08/24 06:09:21;;;;;;;9.60;8.80;;;;;;;16.95;100.00;101043.97;5098620;28;20215;-80
2023/08/24 06:11:47;;;;;;;10.00;9.10;;;;;;;16.97;100.00;101051.91;5098546;28;20211;-82
2023/08/24 06:14:15;;;;;;;10.40;9.40;;;;;;;17.00;100.00;101043.59;5098831;28;20204;-81
2023/08/24 06:16:41;;;;;;;10.60;9.53;;;;;;;17.04;100.00;101034.25;5098877;28;20579;-80
2023/08/24 06:19:10;;;;;;;10.03;9.20;;;;;;;17.09;100.00;101029.34;5099649;28;20198;-81
2023/08/24 06:21:36;;;;;;;10.60;9.70;;;;;;;17.11;100.00;101018.44;5099725;28;20217;-81
2023/08/24 06:24:03;;;;;;;10.53;9.53;;;;;;;17.15;100.00;101011.84;5099845;28;20221;-81
2023/08/24 06:26:30;;;;;;;13.10;10.10;;;;;;;17.19;100.00;101010.59;5099461;28;20251;-81
2023/08/24 06:28:56;;;;;;;10.17;9.17;;;;;;;17.21;100.00;100995.13;5099243;28;20212;-82
2023/08/24 06:31:23;;;;;;;10.47;9.30;;;;;;;17.21;100.00;100995.13;5099502;28;20369;-83
2023/08/24 06:33:50;;;;;;;10.40;9.60;;;;;;;17.24;100.00;100995.75;5099404;28;20234;-84
2023/08/24 06:36:18;;;;;;;10.50;9.70;;;;;;;17.26;100.00;100993.78;5099102;28;20224;-81
2023/08/24 06:38:44;;;;;;;10.73;9.90;;;;;;;17.27;100.00;100990.09;5098656;28;20686;-81
2023/08/24 06:41:12;;;;;;;11.93;10.33;;;;;;;17.30;100.00;100980.91;5099269;28;20227;-83
2023/08/24 06:43:39;;;;;;;11.90;10.73;;;;;;;17.32;100.00;100979.78;5099943;28;20211;-82
2023/08/24 06:46:07;;;;;;;11.63;10.40;;;;;;;17.37;100.00;100976.72;5099303;28;20231;-82
2023/08/24 06:48:34;;;;;;;13.07;11.00;;;;;;;17.40;100.00;100989.03;5099757;28;20231;-82
2023/08/24 06:51:00;;;;;;;11.53;10.53;;;;;;;17.42;100.00;100981.69;5099171;28;20213;-84
2023/08/24 06:53:28;;;;;;;13.90;10.37;;;;;;;17.44;100.00;100979.72;5098813;28;20205;-80
2023/08/24 06:55:56;;;;;;;11.77;10.50;;;;;;;17.49;100.00;100980.16;5099395;28;20583;-83
2023/08/24 06:58:23;;;;;;;12.33;10.23;;;;;;;17.52;100.00;100982.59;5098773;28;20604;-82
2023/08/24 07:00:50;;;;;;;14.60;9.87;;;;;;;17.54;100.00;100981.47;5098538;28;20220;-82
2023/08/24 07:03:17;;;;;;;11.60;10.00;;;;;;;17.60;100.00;100986.31;5098662;28;20616;-81
2023/08/24 07:05:43;;;;;;;14.27;11.03;;;;;;;17.66;100.00;100980.44;5098028;28;20228;-82
2023/08/24 07:08:10;;;;;;;12.33;10.53;;;;;;;17.73;100.00;100977.22;5097662;28;20215;-80
2023/08/24 07:10:38;;;;;;;11.37;9.50;;;;;;;17.79;100.00;100979.34;5097519;28;20206;-84
2023/08/24 07:13:06;;;;;;;10.80;9.70;;;;;;;17.83;99.68;100981.63;5098064;28;20203;-82
2023/08/24 07:15:34;;;;;;;10.40;9.30;;;;;;;17.88;99.05;100981.25;5098875;28;20240;-81
2023/08/24 07:18:01;;;;;;;13.17;9.40;;;;;;;17.93;98.76;100981.66;5098131;28;20242;-82
2023/08/24 07:20:28;;;;;;;12.80;8.80;;;;;;;17.97;98.56;100977.72;5097970;28;20230;-82
2023/08/24 07:22:54;;;;;;;12.03;9.20;;;;;;;18.04;98.64;100974.34;5099187;28;20246;-82
2023/08/24 07:25:21;;;;;;;9.70;8.90;;;;;;;18.13;98.70;100969.97;5099047;28;20287;-80
2023/08/24 07:27:49;;;;;;;10.77;9.43;;;;;;;18.23;98.49;100968.16;5099166;28;20489;-83
2023/08/24 07:30:15;;;;;;;9.90;8.90;;;;;;;18.31;97.46;100953.97;5097172;28;20206;-82
2023/08/24 07:32:42;;;;;;;8.77;7.93;;;;;;;18.38;96.71;100955.97;5097088;28;20207;-83
2023/08/24 07:35:09;;;;;;;8.67;7.97;;;;;;;18.48;96.44;100955.97;5096978;28;20207;-82
2023/08/24 07:37:35;;;;;;;10.40;8.23;;;;;;;18.63;96.73;100943.78;5097099;28;20201;-81
2023/08/24 07:40:03;;;;;;;8.83;8.00;;;;;;;18.81;96.30;100943.94;5098143;28;20210;-81
2023/08/24 07:42:29;;;;;;;8.10;7.50;;;;;;;18.98;94.76;100936.97;5097897;28;20207;-81
2023/08/24 07:44:58;;;;;;;7.77;7.17;;;;;;;19.14;94.15;100937.25;5098603;28;20610;-84
2023/08/24 07:47:24;;;;;;;7.27;6.67;;;;;;;19.32;92.34;100932.78;5098917;28;20293;-81
2023/08/24 07:49:51;;;;;;;7.10;6.40;;;;;;;19.51;90.79;100933.75;5098080;28;20203;-80
2023/08/24 07:52:17;;;;;;;8.37;5.93;;;;;;;19.66;90.11;100925.00;5097907;28;20205;-82
2023/08/24 07:54:45;;;;;;;6.57;5.90;;;;;;;19.84;89.62;100924.22;5099211;28;20212;-83
2023/08/24 07:57:12;;;;;;;8.20;6.80;;;;;;;19.97;88.86;100922.00;5101664;28;20604;-83
2023/08/24 07:59:38;;;;;;;7.20;6.60;;;;;;;20.10;87.40;100912.53;5098609;28;20217;-80
2023/08/24 08:02:06;;;;;;;8.03;6.60;;;;;;;20.27;86.56;100920.81;5096402;28;20211;-82
2023/08/24 08:04:33;;;;;;;6.43;5.77;;;;;;;20.42;85.63;100920.16;5096485;28;20619;-82
2023/08/24 08:06:59;;;;;;;8.30;5.83;;;;;;;20.54;84.36;100915.38;5096849;28;20729;-83
2023/08/24 08:09:26;;;;;;;6.20;5.70;;;;;;;20.67;82.53;100915.84;5096408;28;20582;-82
2023/08/24 08:11:53;;;;;;;6.70;5.78;;;;;;;20.78;82.30;100920.16;5087712;28;20201;-83
2023/08/24 08:14:20;;;;;;;7.05;5.43;;;;;;;20.90;81.36;100918.06;5075697;28;20582;-84
2023/08/24 08:16:46;;;;;;;6.70;5.05;;;;;;;21.01;80.75;100918.63;5090014;28;20280;-84
2023/08/24 08:19:14;;;;;;;5.78;4.72;;;;;;;21.12;78.51;100912.97;5096035;28;20207;-82
2023/08/24 08:21:41;;;;;;;5.47;4.90;;;;;;;21.30;77.70;100920.25;5096204;28;20200;-83
2023/08/24 08:24:07;;;;;;;9.82;4.65;;;;;;;21.50;77.53;100915.44;5095274;28;20200;-83
2023/08/24 08:26:34;;;;;;;6.30;4.75;;;;;;;21.70;77.24;100914.16;5096718;28;20235;-83
2023/08/24 08:29:00;;;;;;;5.07;4.68;;;;;;;21.91;75.69;100911.88;5097625;28;20215;-83
2023/08/24 08:31:27;;;;;;;5.43;4.85;;;;;;;22.09;74.99;100898.25;5095697;28;20611;-81
2023/08/24 08:33:53;;;;;;;4.97;4.18;;;;;;;22.25;73.41;100895.56;5096637;28;20208;-80
2023/08/24 08:36:21;;;;;;;5.53;5.00;;;;;;;22.43;72.20;100898.13;5095836;28;20224;-83
2023/08/24 08:38:47;;;;;;;5.32;4.82;;;;;;;22.59;71.68;100892.72;5095696;28;20200;-82
2023/08/24 08:41:18;;;;;;;5.70;4.80;;;;;;;22.72;70.03;100887.66;5096300;28;20199;-82
2023/08/24 08:43:45;;;;;;;4.97;4.55;;;;;;;22.81;70.51;100892.06;5095262;28;20196;-82
2023/08/24 08:46:13;;;;;;;4.43;4.03;;;;;;;22.98;71.16;100892.06;5096586;28;20764;-82
2023/08/24 08:48:41;;;;;;;4.65;4.25;;;;;;;23.15;69.82;100897.31;5096107;28;20211;-82
2023/08/24 08:51:08;;;;;;;4.93;4.47;;;;;;;23.30;68.06;100902.03;5096152;28;20299;-80
2023/08/24 08:53:35;;;;;;;4.70;3.67;;;;;;;23.40;66.80;100895.38;5096692;28;20208;-81
2023/08/24 08:56:04;;;;;;;5.43;3.92;;;;;;;23.56;66.68;100893.66;5096275;28;20611;-82
2023/08/24 08:58:32;;;;;;;4.97;4.32;;;;;;;23.72;65.96;100889.00;5095688;28;20242;-83
2023/08/24 09:00:59;;;;;;;4.40;4.00;;;;;;;23.91;65.76;100892.31;5096434;28;20196;-82
2023/08/24 09:03:29;;;;;;;5.15;4.55;;;;;;;24.08;64.16;100893.94;5097486;28;20200;-83
2023/08/24 09:05:55;;;;;;;3.95;3.63;;;;;;;24.23;63.43;100890.28;5096150;28;20239;-82
2023/08/24 09:08:22;;;;;;;4.45;3.65;;;;;;;24.32;63.25;100882.94;5097952;28;20223;-81
2023/08/24 09:10:51;;;;;;;8.25;3.80;;;;;;;24.46;63.06;100887.59;5097570;28;20214;-83
2023/08/24 09:13:17;;;;;;;6.47;4.03;;;;;;;24.59;62.43;100889.69;5097996;28;20204;-82
2023/08/24 09:15:44;;;;;;;4.35;3.95;;;;;;;24.70;61.88;100892.00;5098180;28;20234;-80
2023/08/24 09:18:10;;;;;;;4.30;3.95;;;;;;;24.88;60.99;100878.91;5099258;28;20197;-81
2023/08/24 09:20:37;;;;;;;5.57;3.50;;;;;;;25.04;61.02;100877.09;5099502;28;20680;-81
2023/08/24 09:23:04;;;;;;;4.30;3.90;;;;;;;25.16;60.31;100876.44;5097732;28;20214;-83
2023/08/24 09:25:31;;;;;;;4.68;3.75;;;;;;;25.31;60.83;100884.63;5098453;28;20242;-83
2023/08/24 09:27:59;;;;;;;4.63;3.60;;;;;;;25.44;59.33;100879.34;5098398;28;20204;-82
2023/08/24 09:30:30;;;;;;;3.83;3.50;;;;;;;25.56;59.74;100872.41;5098298;28;20214;-81
2023/08/24 09:33:02;;;;;;;4.40;3.70;;;;;;;25.74;59.26;100865.75;5097533;28;20211;-80
2023/08/24 09:35:28;;;;;;;4.15;3.45;;;;;;;25.89;58.88;100863.81;5098268;28;20223;-81
2023/08/24 09:37:55;;;;;;;4.38;3.50;;;;;;;26.00;57.94;100855.13;5097185;28;20965;-81
2023/08/24 09:40:25;;;;;;;4.57;3.20;;;;;;;26.14;57.98;100861.59;5097258;28;20204;-83
2023/08/24 09:42:51;;;;;;;3.67;3.38;;;;;;;26.22;57.07;100861.47;5097296;28;20239;-82
2023/08/24 09:45:19;;;;;;;5.22;3.55;;;;;;;26.34;56.73;100861.81;5102432;28;20231;-83
2023/08/24 09:47:47;;;;;;;4.45;3.45;;;;;;;26.43;56.09;100860.66;5101333;28;20692;-81
2023/08/24 09:50:14;;;;;;;4.47;3.33;;;;;;;26.56;56.28;100853.44;5100565;28;20200;-81
2023/08/24 09:52:43;;;;;;;4.10;3.70;;;;;;;26.65;55.36;100840.50;5101682;28;20671;-81
2023/08/24 09:55:11;;;;;;;5.43;3.75;;;;;;;26.76;55.00;100834.47;5101404;28;20215;-82
2023/08/24 09:57:39;;;;;;;5.70;3.50;;;;;;;26.83;54.67;100827.19;5101238;28;20648;-81
2023/08/24 10:00:10;;;;;;;3.70;3.40;;;;;;;26.91;55.06;100834.38;5101944;28;20215;-81
2023/08/24 10:02:47;;;;;;;5.10;3.85;;;;;;;26.95;54.40;100831.09;5101248;28;20185;-81
2023/08/24 10:05:20;;;;;;;6.43;3.95;;;;;;;26.98;53.10;100834.47;5101485;28;20208;-81
2023/08/24 10:07:49;;;;;;;5.78;3.72;;;;;;;27.01;52.41;100821.25;5100147;28;20199;-81
2023/08/24 10:10:17;;;;;;;4.90;3.35;;;;;;;27.04;53.04;100820.00;5099696;28;20207;-81
2023/08/24 10:12:48;;;;;;;4.93;3.60;;;;;;;27.08;52.19;100811.19;5100065;28;20644;-82
2023/08/24 10:15:16;;;;;;;4.32;3.33;;;;;;;27.09;52.05;100798.38;5099896;28;20211;-81
2023/08/24 10:17:45;;;;;;;4.60;3.45;;;;;;;27.17;53.50;100804.53;5101206;28;20208;-82
2023/08/24 10:20:12;;;;;;;3.55;3.25;;;;;;;27.25;51.68;100803.50;5101504;28;20208;-80
2023/08/24 10:22:40;;;;;;;6.10;3.80;;;;;;;27.29;50.54;100799.31;5102169;28;20563;-82
2023/08/24 10:25:08;;;;;;;5.20;3.80;;;;;;;27.37;50.59;100798.31;5100174;28;20226;-83
2023/08/24 10:27:35;;;;;;;4.32;3.60;;;;;;;27.44;49.72;100786.34;5083215;28;20535;-82
2023/08/24 10:30:02;;;;;;;3.92;3.45;;;;;;;27.46;49.74;100784.25;5098669;28;20208;-80
2023/08/24 10:32:29;;;;;;;3.70;3.30;;;;;;;27.50;48.64;100780.06;5098177;28;20645;-82
2023/08/24 10:34:57;;;;;;;3.67;3.33;;;;;;;27.59;48.53;100772.53;5098858;28;20204;-82
2023/08/24 10:37:28;;;;;;;8.77;3.80;;;;;;;27.67;48.84;100768.78;5098475;28;20228;-81
2023/08/24 10:39:54;;;;;;;6.63;4.25;;;;;;;27.70;48.37;100758.28;5098601;28;20557;-80
2023/08/24 10:42:21;;;;;;;5.35;3.60;;;;;;;27.76;47.84;100754.72;5098464;28;20207;-81
2023/08/24 10:44:49;;;;;;;3.88;3.20;;;;;;;27.88;48.61;100757.69;5099664;28;20212;-82
2023/08/24 10:47:16;;;;;;;4.88;3.65;;;;;;;28.01;49.02;100752.25;5100156;28;20700;-80
2023/08/24 10:49:43;;;;;;;7.55;3.58;;;;;;;28.12;48.14;100759.84;5100089;28;20215;-80
2023/08/24 10:52:22;;;;;;;10.82;3.80;;;;;;;28.21;48.38;100758.63;5102475;28;20204;-82
2023/08/24 10:54:49;;;;;;;7.30;4.13;;;;;;;28.21;46.70;100755.88;5102395;28;20218;-83
2023/08/24 10:57:24;;;;;;;6.03;3.28;;;;;;;28.25;46.71;100759.03;5101238;28;20220;-82
2023/08/24 11:00:05;;;;;;;4.32;3.30;;;;;;;28.31;46.12;100772.72;5100773;28;20203;-83
2023/08/24 11:02:41;;;;;;;4.53;2.80;;;;;;;28.32;45.31;100770.81;5099025;28;20196;-82
2023/08/24 11:05:08;;;;;;;3.85;2.72;;;;;;;28.34;45.17;100769.56;5099276;28;20211;-81
2023/08/24 11:07:48;;;;;;;5.97;2.90;;;;;;;28.44;45.49;100768.31;5099199;28;20204;-82
2023/08/24 11:10:16;;;;;;;9.32;3.85;;;;;;;28.46;44.56;100763.47;5099851;28;20212;-83
2023/08/24 11:13:08;;;;;;;3.90;3.22;;;;;;;28.49;44.06;100754.81;5100159;28;20302;-80
2023/08/24 11:15:38;;;;;;;3.95;2.58;;;;;;;28.51;43.56;100745.34;5099532;28;20582;-81
2023/08/24 11:18:26;;;;;;;4.15;3.40;;;;;;;28.47;43.39;100743.25;5099785;28;20208;-82
2023/08/24 11:20:54;;;;;;;3.72;2.70;;;;;;;28.51;43.64;100747.22;5099543;28;20338;-82
2023/08/24 11:23:23;;;;;;;3.47;2.70;;;;;;;28.56;43.99;100744.69;5100308;28;20542;-81